Time;durP1;ratioP1;P1;durP2;ratioP2;P2;SDS_P1;SDS_P2;PMS_P1;PMS_P2;Temp;Humidity;BMP_temperature;BMP_pressure;BME280_temperature;BME280_humidity;BME280_pressure;Samples;Min_cycle;Max_cycle;Signal;HPM_P1;HPM_P2
2022/06/15 00:00:23;;;;;;;5.28;2.22;;;;;;;18.11;45.88;95299.06;5015620;28;20049;-78
2022/06/15 00:02:49;;;;;;;12.38;2.67;;;;;;;18.09;46.07;95301.97;4998229;28;20420;-78
2022/06/15 00:05:14;;;;;;;3.92;2.00;;;;;;;18.04;45.71;95307.22;4999894;28;20025;-78
2022/06/15 00:07:40;;;;;;;4.22;2.05;;;;;;;18.03;45.75;95299.59;5006791;28;20017;-78
2022/06/15 00:10:06;;;;;;;6.47;2.10;;;;;;;18.00;46.12;95298.28;5038694;28;20432;-78
2022/06/15 00:12:31;;;;;;;2.58;2.03;;;;;;;18.00;46.15;95290.41;4999931;28;20041;-79
2022/06/15 00:14:57;;;;;;;6.75;2.20;;;;;;;18.00;45.87;95293.03;5017746;28;20049;-78
2022/06/15 00:17:23;;;;;;;2.08;1.85;;;;;;;17.94;46.32;95299.38;5002227;28;20043;-79
2022/06/15 00:19:48;;;;;;;6.30;2.00;;;;;;;17.90;46.16;95296.50;5035943;28;20025;-79
2022/06/15 00:22:14;;;;;;;3.25;2.50;;;;;;;17.89;45.98;95289.63;4983518;28;20068;-79
2022/06/15 00:24:39;;;;;;;2.33;2.13;;;;;;;17.86;46.30;95281.47;5000224;28;20026;-79
2022/06/15 00:27:05;;;;;;;14.68;2.45;;;;;;;17.84;45.68;95281.75;5060658;22;20060;-78
2022/06/15 00:29:33;;;;;;;9.55;2.30;;;;;;;17.82;45.86;95286.50;5053186;28;20072;-78
2022/06/15 00:31:59;;;;;;;4.60;2.10;;;;;;;17.82;45.82;95289.13;5048561;28;20064;-77
2022/06/15 00:34:24;;;;;;;5.55;2.20;;;;;;;17.77;45.46;95285.72;5022176;28;20033;-78
2022/06/15 00:36:50;;;;;;;6.20;2.00;;;;;;;17.75;45.26;95278.09;5009976;28;20103;-79
2022/06/15 00:39:15;;;;;;;4.40;2.00;;;;;;;17.72;45.51;95283.84;5007616;28;20535;-79
2022/06/15 00:41:40;;;;;;;14.25;1.90;;;;;;;17.70;45.56;95285.97;5033840;28;20033;-78
2022/06/15 00:44:21;;;;;;;4.43;2.03;;;;;;;17.65;45.83;95275.44;5008731;28;20025;-79
2022/06/15 00:46:55;;;;;;;6.95;2.15;;;;;;;17.62;45.94;95283.84;5034701;28;20035;-78
2022/06/15 00:49:22;;;;;;;2.55;2.17;;;;;;;17.60;45.95;95283.34;5015877;28;20041;-78
2022/06/15 00:51:49;;;;;;;2.42;2.10;;;;;;;17.56;45.78;95280.41;5025745;28;20037;-79
2022/06/15 00:54:15;;;;;;;4.53;2.28;;;;;;;17.58;45.86;95285.44;5016485;28;20045;-79
2022/06/15 00:56:41;;;;;;;10.70;2.30;;;;;;;17.55;45.95;95288.56;5000294;28;20060;-78
2022/06/15 00:59:09;;;;;;;4.78;2.53;;;;;;;17.52;46.22;95283.84;5015842;28;20034;-78
2022/06/15 01:01:34;;;;;;;3.10;2.08;;;;;;;17.53;46.08;95301.19;5032515;28;20113;-78
2022/06/15 01:04:00;;;;;;;2.33;2.03;;;;;;;17.50;46.23;95301.72;5016064;28;20037;-78
2022/06/15 01:06:50;;;;;;;6.20;3.08;;;;;;;17.47;46.75;95297.00;5015992;28;20034;-79
2022/06/15 01:09:20;;;;;;;9.38;2.35;;;;;;;17.45;46.36;95299.09;5033225;28;20029;-79
2022/06/15 01:12:02;;;;;;;11.07;2.30;;;;;;;17.38;47.17;95310.66;5016845;28;20052;-79
2022/06/15 01:14:31;;;;;;;5.25;2.38;;;;;;;17.36;46.35;95301.47;5026532;28;20116;-78
2022/06/15 01:17:24;;;;;;;12.05;2.78;;;;;;;17.32;46.27;95303.03;5041840;28;20120;-78
2022/06/15 01:20:12;;;;;;;2.65;2.28;;;;;;;17.29;45.89;95306.97;5033790;28;20064;-79
2022/06/15 01:23:02;;;;;;;3.85;2.33;;;;;;;17.24;46.82;95301.69;5026715;28;20175;-78
2022/06/15 01:25:41;;;;;;;3.72;2.05;;;;;;;17.21;46.77;95312.72;5039933;28;20033;-78
2022/06/15 01:28:16;;;;;;;2.40;2.05;;;;;;;17.22;46.68;95311.69;5033654;28;20040;-78
2022/06/15 01:31:06;;;;;;;5.93;2.22;;;;;;;17.19;46.71;95308.78;5015644;28;20030;-78
2022/06/15 01:33:35;;;;;;;9.65;2.25;;;;;;;17.18;46.61;95313.25;5042046;28;20050;-77
2022/06/15 01:36:36;;;;;;;3.83;2.15;;;;;;;17.16;47.09;95307.47;5041542;28;20044;-78
2022/06/15 01:39:06;;;;;;;4.25;2.40;;;;;;;17.13;46.93;95315.09;5012110;28;20043;-79
2022/06/15 01:41:36;;;;;;;3.58;2.15;;;;;;;17.07;47.36;95315.06;5024193;28;20654;-79
2022/06/15 01:44:07;;;;;;;2.92;2.30;;;;;;;17.04;47.98;95314.81;5033823;28;20103;-79
2022/06/15 01:46:35;;;;;;;5.18;2.58;;;;;;;17.00;48.44;95313.75;5024231;28;20033;-79
2022/06/15 01:49:00;;;;;;;3.00;2.20;;;;;;;16.93;48.81;95316.66;4998302;28;20037;-79
2022/06/15 01:51:33;;;;;;;19.75;2.75;;;;;;;16.84;49.33;95320.00;5005528;28;20104;-78
2022/06/15 01:54:04;;;;;;;3.30;2.47;;;;;;;16.79;49.64;95320.81;5014690;28;20087;-79
2022/06/15 01:56:42;;;;;;;4.30;2.20;;;;;;;16.73;49.63;95316.56;5003468;28;20045;-78
2022/06/15 01:59:19;;;;;;;7.75;2.28;;;;;;;16.70;49.62;95319.69;5022138;28;20021;-78
2022/06/15 02:01:56;;;;;;;2.30;2.10;;;;;;;16.65;49.58;95311.78;5021424;28;20045;-78
2022/06/15 02:04:39;;;;;;;4.45;2.70;;;;;;;16.57;49.56;95315.69;5030248;28;20099;-78
2022/06/15 02:07:29;;;;;;;2.83;2.28;;;;;;;16.50;49.73;95325.63;5029508;28;20029;-78
2022/06/15 02:09:58;;;;;;;9.73;2.20;;;;;;;16.39;49.59;95324.00;5030610;28;20067;-78
2022/06/15 02:12:28;;;;;;;7.28;2.33;;;;;;;16.37;49.52;95326.88;4996328;28;20433;-78
2022/06/15 02:14:56;;;;;;;4.97;2.15;;;;;;;16.36;50.42;95324.50;5020941;28;20033;-78
2022/06/15 02:17:51;;;;;;;4.03;2.65;;;;;;;16.36;50.25;95324.50;5004833;28;20045;-78
2022/06/15 02:20:19;;;;;;;3.15;2.35;;;;;;;16.36;50.22;95327.13;5016381;28;20049;-78
2022/06/15 02:22:45;;;;;;;5.45;2.78;;;;;;;16.29;50.41;95326.59;5012479;28;20037;-78
2022/06/15 02:25:13;;;;;;;16.55;3.40;;;;;;;16.25;50.63;95318.41;5004854;28;21009;-78
2022/06/15 02:27:39;;;;;;;11.85;2.88;;;;;;;16.24;50.59;95321.28;5021067;28;20037;-79
2022/06/15 02:30:11;;;;;;;7.53;2.50;;;;;;;16.25;50.67;95320.25;5013003;28;20037;-78
2022/06/15 02:32:37;;;;;;;14.85;2.95;;;;;;;16.25;52.06;95317.63;5003820;28;20056;-78
2022/06/15 02:35:04;;;;;;;14.70;3.92;;;;;;;16.21;52.14;95326.00;5004979;28;20047;-78
2022/06/15 02:37:29;;;;;;;9.13;3.03;;;;;;;16.17;52.75;95322.31;5020076;28;20042;-78
2022/06/15 02:39:55;;;;;;;11.82;3.30;;;;;;;16.15;53.08;95313.91;5005504;28;20041;-78
2022/06/15 02:42:29;;;;;;;27.48;3.40;;;;;;;16.09;52.89;95309.66;5011754;28;20413;-78
2022/06/15 02:44:57;;;;;;;20.52;3.83;;;;;;;16.07;53.15;95317.00;5024896;28;20040;-78
2022/06/15 02:47:23;;;;;;;13.13;3.10;;;;;;;16.03;52.93;95315.94;5005953;28;20030;-78
2022/06/15 02:49:51;;;;;;;7.18;2.97;;;;;;;16.00;54.38;95316.44;5012893;28;20060;-79
2022/06/15 02:52:17;;;;;;;6.85;2.67;;;;;;;15.96;53.95;95315.38;5029923;28;20041;-78
2022/06/15 02:54:46;;;;;;;7.60;3.13;;;;;;;15.95;53.63;95324.28;5028260;28;20574;-78
2022/06/15 02:57:12;;;;;;;11.70;2.35;;;;;;;15.93;52.54;95318.47;5012982;28;20116;-78
2022/06/15 02:59:37;;;;;;;9.75;2.63;;;;;;;15.95;51.47;95319.06;5005051;28;20037;-79
2022/06/15 03:02:03;;;;;;;6.47;2.65;;;;;;;15.99;51.74;95319.31;5013410;28;20029;-77
2022/06/15 03:04:29;;;;;;;13.13;3.20;;;;;;;15.99;52.41;95316.69;5013581;28;20474;-80
2022/06/15 03:06:54;;;;;;;13.95;3.22;;;;;;;15.99;52.67;95324.56;5170481;23;20025;-79
2022/06/15 03:09:20;;;;;;;6.05;2.95;;;;;;;15.99;51.70;95319.31;5020358;28;20048;-78
2022/06/15 03:11:45;;;;;;;3.45;2.60;;;;;;;16.02;51.07;95319.59;5031008;28;20048;-77
2022/06/15 03:14:14;;;;;;;9.10;2.78;;;;;;;16.06;51.24;95315.44;5013522;28;20424;-78
2022/06/15 03:16:43;;;;;;;5.50;2.45;;;;;;;16.11;50.67;95312.06;5077088;22;20040;-77
2022/06/15 03:19:09;;;;;;;8.50;3.67;;;;;;;16.15;50.80;95321.00;5040098;28;20048;-78
2022/06/15 03:24:00;;;;;;;7.32;3.00;;;;;;;16.26;51.06;95317.38;5083941;22;20057;-78
2022/06/15 03:26:26;;;;;;;11.90;2.50;;;;;;;16.32;50.42;95328.69;5026912;28;20076;-78
2022/06/15 03:28:54;;;;;;;6.13;2.50;;;;;;;16.38;51.28;95317.19;5018188;28;20034;-77
2022/06/15 03:31:20;;;;;;;2.53;2.28;;;;;;;16.43;50.85;95322.44;5000608;28;20120;-78
2022/06/15 03:33:45;;;;;;;13.27;2.58;;;;;;;16.49;51.19;95329.31;5047068;23;20049;-77
2022/06/15 03:36:11;;;;;;;11.88;2.58;;;;;;;16.54;50.91;95326.69;5030869;28;20040;-77
2022/06/15 03:38:36;;;;;;;4.82;2.38;;;;;;;16.53;50.20;95330.38;5048874;28;20037;-78
2022/06/15 03:41:02;;;;;;;5.47;2.40;;;;;;;16.55;49.73;95333.53;5062976;22;20091;-79
2022/06/15 03:43:27;;;;;;;12.82;2.50;;;;;;;16.58;50.16;95327.75;5013772;28;20511;-79
2022/06/15 03:45:53;;;;;;;6.30;2.30;;;;;;;16.55;50.49;95333.53;5014188;28;20041;-78
2022/06/15 03:48:18;;;;;;;4.18;2.80;;;;;;;16.55;50.08;95327.50;4980822;28;20040;-79
2022/06/15 03:50:44;;;;;;;18.02;2.65;;;;;;;16.55;50.82;95332.75;4997764;28;20030;-79
2022/06/15 03:53:10;;;;;;;6.43;2.90;;;;;;;16.62;50.78;95335.94;4996353;28;20029;-79
2022/06/15 03:55:35;;;;;;;4.40;2.47;;;;;;;16.69;50.91;95339.91;4997288;28;20034;-79
2022/06/15 03:58:01;;;;;;;2.88;2.35;;;;;;;16.75;50.63;95336.25;5015213;28;20056;-79
2022/06/15 04:00:28;;;;;;;5.32;2.72;;;;;;;16.89;50.45;95338.41;5000449;28;20508;-78
2022/06/15 04:02:53;;;;;;;9.52;3.00;;;;;;;17.62;49.46;95337.25;5016003;28;20033;-78
2022/06/15 04:05:21;;;;;;;13.63;3.17;;;;;;;19.78;44.65;95340.44;5015034;28;20132;-79
2022/06/15 04:10:31;;;;;;;9.60;2.13;;;;;;;24.87;34.27;95339.38;5017169;28;20036;-78
2022/06/15 04:12:56;;;;;;;6.78;2.25;;;;;;;27.01;30.38;95330.69;4997922;28;20033;-77
2022/06/15 04:15:22;;;;;;;7.90;2.00;;;;;;;29.10;27.30;95332.91;5013865;28;20029;-76
2022/06/15 04:17:47;;;;;;;5.65;1.83;;;;;;;30.83;24.67;95327.28;5030500;28;20036;-77
2022/06/15 04:20:33;;;;;;;2.65;2.03;;;;;;;32.06;23.47;95328.38;4997477;28;20398;-78
2022/06/15 04:23:06;;;;;;;4.68;2.30;;;;;;;33.35;20.87;95329.31;5016334;28;20030;-78
2022/06/15 04:25:36;;;;;;;8.98;2.05;;;;;;;34.68;20.44;95329.66;4998282;28;20048;-77
2022/06/15 04:28:03;;;;;;;8.63;1.95;;;;;;;35.81;19.20;95328.81;4998307;28;20480;-77
2022/06/15 04:30:28;;;;;;;4.70;1.73;;;;;;;36.76;18.18;95332.88;5012718;28;20037;-77
2022/06/15 04:32:54;;;;;;;14.23;2.65;;;;;;;37.76;17.71;95324.63;4997613;28;20033;-77
2022/06/15 04:35:19;;;;;;;7.28;1.80;;;;;;;38.58;16.23;95324.16;5030363;28;20062;-78
2022/06/15 04:37:45;;;;;;;6.38;2.00;;;;;;;39.37;15.48;95326.97;4981399;28;20071;-76
2022/06/15 04:40:12;;;;;;;11.48;1.67;;;;;;;40.03;14.69;95326.59;4997630;28;20036;-76
2022/06/15 04:42:38;;;;;;;9.20;2.10;;;;;;;40.74;14.49;95331.03;4996980;28;20041;-77
2022/06/15 04:45:04;;;;;;;17.88;1.75;;;;;;;41.13;14.04;95333.09;5013052;28;20033;-77
2022/06/15 04:47:30;;;;;;;2.95;1.23;;;;;;;41.54;13.36;95330.03;5012857;28;20511;-77
2022/06/15 04:49:55;;;;;;;3.45;1.90;;;;;;;42.21;13.34;95336.09;4995685;28;20030;-77
2022/06/15 04:52:21;;;;;;;7.57;1.80;;;;;;;42.73;12.87;95327.09;5031560;28;20033;-76
2022/06/15 04:54:46;;;;;;;3.63;1.67;;;;;;;43.15;11.98;95327.25;4995285;28;20029;-77
2022/06/15 04:57:12;;;;;;;10.02;1.65;;;;;;;43.66;11.81;95332.94;5012659;28;20029;-77
2022/06/15 04:59:37;;;;;;;5.95;1.75;;;;;;;43.95;11.23;95333.69;4996311;28;20034;-77
2022/06/15 05:02:03;;;;;;;11.75;1.65;;;;;;;44.17;11.25;95330.34;5012440;28;20374;-77
2022/06/15 05:04:29;;;;;;;4.18;1.60;;;;;;;44.48;11.08;95336.03;4994483;28;20030;-76
2022/06/15 05:06:54;;;;;;;6.55;1.60;;;;;;;44.83;11.19;95329.44;5030220;28;20508;-78
2022/06/15 05:09:20;;;;;;;13.40;1.60;;;;;;;45.33;10.25;95335.25;5028211;28;20030;-77
2022/06/15 05:11:45;;;;;;;5.80;1.17;;;;;;;45.78;9.97;95338.34;5008633;28;20033;-77
2022/06/15 05:14:11;;;;;;;9.10;1.60;;;;;;;46.20;9.90;95348.22;4978779;28;20351;-76
2022/06/15 05:16:37;;;;;;;6.40;1.40;;;;;;;46.51;9.62;95345.47;5011830;28;20105;-77
2022/06/15 05:19:03;;;;;;;3.70;1.50;;;;;;;46.44;9.45;95346.53;5013052;28;20630;-79
2022/06/15 05:21:29;;;;;;;13.10;1.50;;;;;;;46.64;9.40;95351.63;5012571;28;20057;-78
2022/06/15 05:23:58;;;;;;;6.40;1.58;;;;;;;46.80;9.71;95345.09;5013552;28;20030;-79
2022/06/15 05:26:26;;;;;;;8.25;1.40;;;;;;;47.04;9.41;95354.34;5032270;28;20168;-82
2022/06/15 05:28:52;;;;;;;7.85;1.92;;;;;;;47.39;9.27;95354.06;4997277;28;20111;-78
2022/06/15 05:31:20;;;;;;;7.53;1.63;;;;;;;47.60;9.16;95355.16;5014661;28;20034;-79
2022/06/15 05:33:46;;;;;;;4.15;1.52;;;;;;;47.72;8.68;95355.00;5016364;28;20040;-80
2022/06/15 05:36:13;;;;;;;4.35;1.50;;;;;;;47.83;9.08;95354.50;5015147;28;20049;-80
2022/06/15 05:38:39;;;;;;;4.00;1.45;;;;;;;48.08;8.63;95350.66;5000148;28;20043;-80
2022/06/15 05:41:05;;;;;;;6.55;1.40;;;;;;;48.46;8.46;95352.81;5004378;28;20068;-79
2022/06/15 05:43:33;;;;;;;12.05;1.65;;;;;;;48.46;8.88;95352.81;5016707;28;20033;-81
2022/06/15 05:45:59;;;;;;;11.10;1.48;;;;;;;48.73;8.38;95349.19;5036458;28;20044;-78
2022/06/15 05:48:24;;;;;;;2.60;1.33;;;;;;;49.21;8.33;95349.97;4997308;28;20065;-77
2022/06/15 05:50:50;;;;;;;8.57;1.60;;;;;;;49.17;8.55;95360.44;4996467;28;20037;-76
2022/06/15 05:53:15;;;;;;;1.55;1.23;;;;;;;49.26;8.22;95345.78;5011569;28;20501;-75
2022/06/15 05:55:41;;;;;;;10.25;1.70;;;;;;;49.29;8.02;95345.63;5029102;28;20489;-75
2022/06/15 05:58:06;;;;;;;6.82;1.60;;;;;;;49.57;7.75;95348.16;5010855;28;20232;-75
2022/06/15 06:00:32;;;;;;;12.70;1.48;;;;;;;49.71;7.57;95352.97;5029941;28;20029;-76
2022/06/15 06:02:58;;;;;;;10.20;1.50;;;;;;;49.36;7.45;95347.28;4978763;28;20033;-73
2022/06/15 06:05:23;;;;;;;2.60;1.10;;;;;;;48.89;7.17;95357.06;5010827;28;20037;-74
2022/06/15 06:07:49;;;;;;;5.13;1.38;;;;;;;48.67;7.39;95360.13;5012208;28;20028;-75
2022/06/15 06:10:15;;;;;;;7.95;1.48;;;;;;;48.88;7.70;95354.78;5029651;28;20030;-73
2022/06/15 06:12:40;;;;;;;8.45;1.63;;;;;;;48.33;7.56;95358.56;4996502;28;20946;-82
2022/06/15 06:15:09;;;;;;;5.03;1.15;;;;;;;47.52;8.03;95361.00;4984423;28;20071;-81
2022/06/15 06:17:35;;;;;;;7.97;1.25;;;;;;;47.26;8.19;95356.97;4999555;28;20092;-80
2022/06/15 06:20:00;;;;;;;5.50;1.40;;;;;;;47.15;8.35;95364.91;4997243;28;20037;-78
2022/06/15 06:22:26;;;;;;;8.82;1.67;;;;;;;46.81;8.73;95366.66;5030649;28;20053;-78
2022/06/15 06:24:51;;;;;;;12.05;1.48;;;;;;;47.01;8.41;95359.97;4995050;28;20052;-78
2022/06/15 06:27:17;;;;;;;4.53;1.10;;;;;;;46.64;8.88;95365.38;5010472;28;20041;-78
2022/06/15 06:29:43;;;;;;;4.90;1.40;;;;;;;46.64;8.40;95363.38;5029116;28;20374;-78
2022/06/15 06:32:11;;;;;;;3.13;1.40;;;;;;;46.57;8.42;95360.16;4996240;28;20084;-78
2022/06/15 06:34:36;;;;;;;7.45;1.40;;;;;;;46.32;8.59;95359.13;5011946;28;20040;-78
2022/06/15 06:37:05;;;;;;;3.75;1.25;;;;;;;46.03;8.47;95358.66;4996423;28;20029;-78
2022/06/15 06:39:31;;;;;;;4.38;1.48;;;;;;;45.53;9.12;95357.69;4996645;28;20488;-78
2022/06/15 06:41:57;;;;;;;6.15;1.70;;;;;;;45.54;9.56;95359.22;5012254;28;20040;-78
2022/06/15 06:44:22;;;;;;;5.10;1.30;;;;;;;45.28;9.46;95353.06;5012385;28;20029;-78
2022/06/15 06:46:49;;;;;;;5.07;1.40;;;;;;;44.84;9.75;95347.44;4994764;28;20025;-78
2022/06/15 06:49:14;;;;;;;6.20;1.77;;;;;;;44.84;10.16;95338.44;4995577;28;20033;-78
2022/06/15 06:51:40;;;;;;;13.05;1.48;;;;;;;44.78;10.10;95343.72;4978376;28;20103;-78
2022/06/15 06:54:06;;;;;;;4.63;1.50;;;;;;;44.28;9.76;95349.97;5029691;28;20032;-78
2022/06/15 06:56:34;;;;;;;5.35;1.20;;;;;;;43.58;10.79;95342.53;5011973;28;20116;-78
2022/06/15 06:59:00;;;;;;;7.60;1.60;;;;;;;43.38;11.01;95350.91;4995871;28;20624;-78
2022/06/15 07:01:25;;;;;;;4.13;1.70;;;;;;;43.27;10.99;95340.22;4995761;28;20045;-78
2022/06/15 07:03:51;;;;;;;7.05;1.83;;;;;;;42.61;11.49;95344.19;5011333;28;20056;-78
2022/06/15 07:06:16;;;;;;;6.10;1.77;;;;;;;42.07;11.22;95354.75;4995663;28;20463;-78
2022/06/15 07:08:42;;;;;;;7.28;1.40;;;;;;;41.47;12.07;95357.47;5011893;28;20416;-77
2022/06/15 07:11:15;;;;;;;4.80;1.50;;;;;;;40.85;12.66;95350.00;4996140;28;20365;-78
2022/06/15 07:13:41;;;;;;;3.67;1.63;;;;;;;39.86;13.65;95352.84;5028819;28;20120;-77
2022/06/15 07:16:07;;;;;;;4.07;1.23;;;;;;;39.17;14.24;95354.75;4995490;28;20552;-78
2022/06/15 07:18:33;;;;;;;6.68;2.45;;;;;;;38.50;14.77;95350.59;5011871;28;20034;-78
2022/06/15 07:21:11;;;;;;;11.00;2.13;;;;;;;37.67;15.11;95348.66;5013924;28;20037;-78
2022/06/15 07:23:37;;;;;;;9.93;1.40;;;;;;;37.06;15.94;95356.13;4997034;28;20034;-78
2022/06/15 07:26:10;;;;;;;3.78;2.03;;;;;;;36.71;16.25;95357.66;4996597;28;20080;-78
2022/06/15 07:28:36;;;;;;;7.10;1.77;;;;;;;36.02;17.27;95360.63;4980353;28;20049;-78
2022/06/15 07:31:01;;;;;;;3.22;1.65;;;;;;;35.51;17.16;95353.44;5012709;28;20087;-77
2022/06/15 07:33:27;;;;;;;12.43;1.85;;;;;;;34.70;18.38;95348.19;4982586;28;20033;-78
2022/06/15 07:35:52;;;;;;;6.43;2.13;;;;;;;33.88;18.92;95348.13;5034105;28;20520;-78
2022/06/15 07:38:19;;;;;;;4.78;1.50;;;;;;;33.21;19.67;95364.16;5033219;28;20073;-78
2022/06/15 07:40:46;;;;;;;3.42;1.70;;;;;;;32.65;20.08;95359.41;4983933;28;20027;-78
2022/06/15 07:43:11;;;;;;;9.07;1.63;;;;;;;32.23;20.87;95360.22;4983105;28;20134;-78
2022/06/15 07:45:37;;;;;;;6.07;1.52;;;;;;;31.88;20.68;95354.13;4999274;28;20056;-78
2022/06/15 07:50:47;;;;;;;7.53;1.88;;;;;;;30.99;22.57;95363.72;5020847;28;20043;-81
2022/06/15 07:53:13;;;;;;;8.35;1.80;;;;;;;30.66;23.58;95366.00;5024649;28;20034;-79
2022/06/15 07:55:42;;;;;;;4.95;1.80;;;;;;;30.33;23.11;95360.91;4988042;28;20065;-79
2022/06/15 07:58:11;;;;;;;6.32;2.17;;;;;;;30.11;24.15;95356.91;5001371;28;20416;-78
2022/06/15 08:00:38;;;;;;;4.63;1.70;;;;;;;29.68;24.16;95355.72;4981308;28;20025;-80
2022/06/15 08:03:04;;;;;;;8.45;1.85;;;;;;;29.46;25.14;95348.19;5009655;28;20037;-80
2022/06/15 08:05:30;;;;;;;13.27;1.83;;;;;;;29.36;25.41;95360.13;4984594;28;20042;-78
2022/06/15 08:07:56;;;;;;;6.93;1.60;;;;;;;29.21;24.90;95361.59;5016014;28;20039;-78
2022/06/15 08:10:24;;;;;;;11.05;1.85;;;;;;;28.91;25.74;95352.22;5033639;28;20420;-80
2022/06/15 08:12:51;;;;;;;15.00;2.30;;;;;;;28.79;26.24;95363.69;4983166;28;20033;-77
2022/06/15 08:15:17;;;;;;;3.10;1.60;;;;;;;28.50;26.31;95364.69;4981292;28;20091;-78
2022/06/15 08:17:48;;;;;;;3.88;2.40;;;;;;;28.33;27.39;95357.63;4999865;28;20044;-78
2022/06/15 08:20:20;;;;;;;14.93;3.55;;;;;;;28.26;27.59;95361.94;5004126;28;20044;-79
2022/06/15 08:22:48;;;;;;;8.50;2.47;;;;;;;28.08;26.89;95362.09;5013989;28;20033;-75
2022/06/15 08:25:16;;;;;;;13.77;2.33;;;;;;;27.95;26.96;95365.81;5029947;28;20095;-77
2022/06/15 08:27:42;;;;;;;5.63;2.20;;;;;;;27.81;27.92;95362.63;4997911;28;20091;-75
2022/06/15 08:30:10;;;;;;;28.83;5.25;;;;;;;27.72;28.86;95365.41;4996912;28;20068;-75
2022/06/15 08:32:36;;;;;;;17.20;3.40;;;;;;;27.69;28.83;95359.94;5029474;28;20448;-75
2022/06/15 08:35:01;;;;;;;12.07;3.78;;;;;;;27.68;29.87;95363.72;4997566;28;20033;-76
2022/06/15 08:37:27;;;;;;;10.57;2.42;;;;;;;27.72;29.24;95359.28;5030777;28;20029;-76
2022/06/15 08:39:54;;;;;;;5.80;2.60;;;;;;;27.55;27.71;95362.06;4997863;28;20523;-76
2022/06/15 08:42:57;;;;;;;5.97;2.05;;;;;;;27.37;28.06;95359.50;5013912;28;20034;-76
2022/06/15 08:45:30;;;;;;;18.48;2.60;;;;;;;27.22;28.00;95368.09;5150603;22;20050;-76
2022/06/15 08:48:11;;;;;;;7.75;1.90;;;;;;;27.09;27.94;95361.88;5007457;28;20066;-76
2022/06/15 08:50:51;;;;;;;9.80;2.17;;;;;;;27.05;28.39;95360.19;5001926;28;20549;-76
2022/06/15 08:53:47;;;;;;;12.25;2.25;;;;;;;26.99;29.43;95369.44;4986310;28;20036;-76
2022/06/15 08:56:15;;;;;;;14.52;2.50;;;;;;;26.92;28.89;95364.63;5013663;28;20054;-75
2022/06/15 08:58:54;;;;;;;4.88;2.35;;;;;;;26.94;29.94;95365.06;4984787;28;20030;-75
2022/06/15 09:01:40;;;;;;;9.50;2.10;;;;;;;26.84;29.26;95357.41;4983972;28;20528;-76
2022/06/15 09:04:20;;;;;;;6.72;1.90;;;;;;;26.65;29.60;95360.50;5015444;28;20065;-76
2022/06/15 09:06:58;;;;;;;7.38;2.15;;;;;;;26.61;30.09;95364.91;4982954;28;20038;-76
2022/06/15 09:09:35;;;;;;;7.00;2.45;;;;;;;26.63;30.26;95352.03;5001358;28;20482;-76
2022/06/15 09:15:29;;;;;;;3.35;2.00;;;;;;;26.43;28.76;95358.06;5001911;28;20080;-78
2022/06/15 09:17:56;;;;;;;16.00;2.88;;;;;;;26.26;30.06;95359.66;5007056;28;20100;-76
2022/06/15 09:20:30;;;;;;;13.00;1.55;;;;;;;26.14;30.42;95356.84;4967094;28;20072;-73
2022/06/15 09:23:07;;;;;;;5.65;1.70;;;;;;;26.13;31.46;95359.84;4983930;28;20500;-73
2022/06/15 09:25:45;;;;;;;3.33;1.75;;;;;;;26.23;31.59;95359.53;4998786;28;20081;-73
2022/06/15 09:28:20;;;;;;;12.10;1.83;;;;;;;26.31;31.17;95356.03;4968009;28;20052;-73
2022/06/15 09:30:45;;;;;;;6.70;1.90;;;;;;;26.22;31.33;95358.75;4999488;28;20102;-73
2022/06/15 09:33:15;;;;;;;7.30;1.95;;;;;;;26.09;29.37;95359.69;4982948;28;20387;-73
2022/06/15 09:35:47;;;;;;;3.80;1.77;;;;;;;25.95;30.47;95353.75;4997695;28;20588;-73
2022/06/15 09:38:13;;;;;;;;;;;;;;;25.96;31.69;95358.00;4968556;28;20043;-73
2022/06/15 09:40:42;;;;;;;4.78;2.03;;;;;;;25.88;30.93;95358.78;5015609;28;19925;-73
2022/06/15 09:43:10;;;;;;;5.85;3.38;;;;;;;25.86;30.98;95351.09;4999605;28;20037;-73
2022/06/15 09:45:51;;;;;;;6.60;2.00;;;;;;;25.91;30.82;95352.84;5000660;28;20029;-73
2022/06/15 09:48:20;;;;;;;3.67;1.98;;;;;;;25.90;30.71;95352.06;4984221;28;20030;-74
2022/06/15 09:50:58;;;;;;;2.65;1.60;;;;;;;25.98;30.21;95353.13;5000009;28;20095;-74
2022/06/15 09:53:29;;;;;;;4.35;2.03;;;;;;;26.02;29.85;95354.84;5023602;28;20073;-74
2022/06/15 09:56:00;;;;;;;2.22;1.70;;;;;;;25.88;30.79;95345.47;4998069;28;20044;-74
2022/06/15 09:58:31;;;;;;;5.60;1.92;;;;;;;25.65;29.95;95350.94;5000556;28;20153;-74
2022/06/15 10:00:56;;;;;;;3.38;2.08;;;;;;;25.32;30.19;95357.81;5012904;28;20136;-73
2022/06/15 10:03:22;;;;;;;4.10;1.88;;;;;;;25.39;32.12;95350.16;5015930;28;20533;-74
2022/06/15 10:05:47;;;;;;;7.07;1.98;;;;;;;25.39;31.28;95342.16;5001690;28;20042;-74
2022/06/15 10:08:14;;;;;;;3.47;1.83;;;;;;;25.38;31.28;95343.25;4999094;28;20489;-74
2022/06/15 10:10:53;;;;;;;14.75;1.90;;;;;;;25.43;32.19;95337.78;4999074;28;20038;-74
2022/06/15 10:13:18;;;;;;;5.43;2.10;;;;;;;25.40;31.44;95338.41;4998404;28;20064;-74
2022/06/15 10:15:43;;;;;;;5.90;1.75;;;;;;;25.37;31.88;95341.69;4997812;28;20402;-74
2022/06/15 10:18:57;;;;;;;4.13;2.45;;;;;;;25.32;32.26;95336.50;4998600;28;20494;-74
2022/06/15 10:21:24;;;;;;;3.50;1.70;;;;;;;25.32;32.77;95339.16;4991470;28;20103;-74
2022/06/15 10:24:01;;;;;;;9.98;2.00;;;;;;;25.19;31.13;95342.75;4998984;28;20045;-74
2022/06/15 10:26:39;;;;;;;2.15;1.95;;;;;;;25.16;32.90;95343.38;4998735;28;20117;-74
2022/06/15 10:29:23;;;;;;;8.90;1.67;;;;;;;25.16;32.74;95341.50;5022438;28;20042;-74
2022/06/15 10:32:17;;;;;;;6.43;2.17;;;;;;;24.89;31.54;95339.84;4999363;28;20046;-74
2022/06/15 10:34:45;;;;;;;6.30;2.03;;;;;;;24.80;32.35;95341.72;5008261;28;20468;-74
2022/06/15 10:37:16;;;;;;;10.98;2.22;;;;;;;24.82;33.98;95344.84;5001421;28;20120;-74
2022/06/15 10:39:42;;;;;;;10.55;2.33;;;;;;;24.93;33.28;95332.03;4999475;28;20030;-74
2022/06/15 10:42:09;;;;;;;5.22;1.92;;;;;;;24.99;33.87;95328.91;4981672;28;20049;-74
2022/06/15 10:44:40;;;;;;;4.03;1.90;;;;;;;25.13;33.98;95334.16;5000353;28;20029;-74
2022/06/15 10:47:18;;;;;;;7.13;2.20;;;;;;;25.25;32.77;95325.56;4996330;28;20046;-74
2022/06/15 10:50:06;;;;;;;4.60;2.00;;;;;;;25.22;31.49;95326.97;4998536;28;20038;-74
2022/06/15 10:52:49;;;;;;;4.57;2.05;;;;;;;25.20;32.52;95329.13;4997552;28;20111;-74
2022/06/15 11:04:18;;;;;;;5.22;2.20;;;;;;;24.94;33.20;95325.63;4999757;28;20409;-74
2022/06/15 11:06:50;;;;;;;4.67;1.83;;;;;;;24.63;33.29;95317.72;4984463;28;20387;-74
2022/06/15 11:09:25;;;;;;;10.75;4.35;;;;;;;24.58;33.52;95309.91;5004937;28;20289;-75
2022/06/15 11:11:51;;;;;;;5.93;1.95;;;;;;;24.63;33.69;95318.50;5013112;28;20037;-73
2022/06/15 11:14:43;;;;;;;6.18;2.30;;;;;;;24.68;34.76;95313.03;5005747;28;20031;-74
2022/06/15 11:20:27;;;;;;;12.23;2.45;;;;;;;25.05;34.92;95309.06;4991897;28;20049;-75
2022/06/15 11:22:55;;;;;;;4.15;1.85;;;;;;;25.20;34.14;95312.38;5002531;28;20030;-75
2022/06/15 11:25:25;;;;;;;7.43;2.08;;;;;;;25.34;34.14;95307.69;4972589;28;20607;-76
2022/06/15 11:28:00;;;;;;;6.05;2.08;;;;;;;25.44;34.12;95307.41;5004415;28;20113;-76
2022/06/15 11:30:31;;;;;;;5.10;2.10;;;;;;;25.55;33.14;95300.66;5002942;28;20030;-74
2022/06/15 11:33:11;;;;;;;7.28;1.92;;;;;;;25.67;32.73;95306.13;5000206;28;20029;-75
2022/06/15 11:35:42;;;;;;;15.38;2.28;;;;;;;25.89;34.18;95296.41;4990054;28;20111;-76
2022/06/15 11:38:47;;;;;;;11.82;2.10;;;;;;;26.08;34.03;95290.72;4996537;28;20050;-75
2022/06/15 11:41:51;;;;;;;3.50;1.90;;;;;;;26.24;32.57;95292.53;5001851;28;20150;-74
2022/06/15 11:44:32;;;;;;;6.78;2.00;;;;;;;26.31;32.32;95287.50;4996417;28;20050;-75
2022/06/15 11:47:06;;;;;;;12.80;2.33;;;;;;;26.34;32.09;95292.19;4987760;28;20117;-75
2022/06/15 11:49:49;;;;;;;6.53;2.22;;;;;;;26.43;32.54;95288.75;5004845;28;20030;-75
2022/06/15 11:52:44;;;;;;;7.00;2.47;;;;;;;26.51;32.39;95290.56;5005452;28;20034;-76
2022/06/15 11:55:30;;;;;;;8.75;2.05;;;;;;;26.55;32.41;95289.63;5003686;28;20050;-75
2022/06/15 11:58:11;;;;;;;6.85;1.70;;;;;;;26.57;31.73;95294.63;5006143;28;20038;-75
2022/06/15 12:00:54;;;;;;;2.60;2.33;;;;;;;26.58;32.09;95280.97;5004140;28;20512;-76
2022/06/15 12:03:40;;;;;;;8.63;2.03;;;;;;;26.56;32.84;95282.41;5005129;28;20033;-74
2022/06/15 12:06:43;;;;;;;4.82;2.00;;;;;;;26.48;33.30;95280.53;5003806;28;20030;-74
2022/06/15 12:09:33;;;;;;;19.92;3.13;;;;;;;26.55;36.92;95286.19;5028490;28;20593;-74
2022/06/15 12:14:51;;;;;;;6.68;2.30;;;;;;;26.23;32.73;95280.31;5004877;28;20037;-75